Time;durP1;ratioP1;P1;durP2;ratioP2;P2;SDS_P1;SDS_P2;PMS_P1;PMS_P2;Temp;Humidity;BMP_temperature;BMP_pressure;BME280_temperature;BME280_humidity;BME280_pressure;Samples;Min_cycle;Max_cycle;Signal;HPM_P1;HPM_P2
2021/01/21 00:00:01;;;;;;;109.87;52.67;;;;;;;-2.15;100.00;98184.63;2089237;28;20222;-79
2021/01/21 00:01:02;;;;;;;112.90;53.85;;;;;;;-2.12;100.00;98178.94;2081130;28;20317;-79
2021/01/21 00:02:03;;;;;;;96.87;51.07;;;;;;;-2.10;100.00;98190.72;2082001;28;20264;-79
2021/01/21 00:03:05;;;;;;;118.07;56.50;;;;;;;-2.10;100.00;98187.31;2082005;28;20306;-79
2021/01/21 00:04:07;;;;;;;109.97;54.17;;;;;;;-2.00;100.00;98185.69;2082065;28;20313;-78
2021/01/21 00:05:09;;;;;;;123.55;57.17;;;;;;;-2.00;100.00;98180.47;2079518;28;20230;-78
2021/01/21 00:06:10;;;;;;;116.63;57.70;;;;;;;-1.92;100.00;98189.72;2081668;28;20218;-81
2021/01/21 00:07:11;;;;;;;113.07;56.70;;;;;;;-1.93;100.00;98187.34;2081038;28;20677;-80
2021/01/21 00:08:12;;;;;;;115.27;56.20;;;;;;;-1.83;100.00;98187.50;2081054;28;20231;-80
2021/01/21 00:09:14;;;;;;;107.63;54.60;;;;;;;-1.77;100.00;98182.13;2081182;28;20234;-81
2021/01/21 00:10:15;;;;;;;121.68;56.67;;;;;;;-1.69;100.00;98193.22;2081961;28;20574;-80
2021/01/21 00:11:16;;;;;;;113.88;55.55;;;;;;;-1.73;100.00;98187.69;2081732;28;20223;-80
2021/01/21 00:12:17;;;;;;;103.77;52.10;;;;;;;-1.72;100.00;98191.88;2081372;28;20223;-80
2021/01/21 00:13:18;;;;;;;107.97;52.97;;;;;;;-1.78;100.00;98196.22;2081101;28;21148;-81
2021/01/21 00:14:19;;;;;;;114.20;54.00;;;;;;;-1.78;100.00;98191.00;2081141;28;20350;-81
2021/01/21 00:15:20;;;;;;;105.85;53.50;;;;;;;-1.81;100.00;98183.66;2081226;28;20243;-80
2021/01/21 00:16:21;;;;;;;113.43;55.10;;;;;;;-1.76;100.00;98183.69;2080844;28;20283;-80
2021/01/21 00:17:22;;;;;;;105.00;52.75;;;;;;;-1.82;100.00;98183.88;2074489;28;20294;-79
2021/01/21 00:18:25;;;;;;;118.50;54.23;;;;;;;-1.91;100.00;98170.41;2077938;28;20223;-80
2021/01/21 00:19:25;;;;;;;104.47;50.00;;;;;;;-2.03;100.00;98162.63;2081788;28;20246;-80
2021/01/21 00:20:27;;;;;;;98.80;53.20;;;;;;;-1.95;100.00;98173.72;2080901;28;20231;-80
2021/01/21 00:21:28;;;;;;;98.20;50.75;;;;;;;-2.00;100.00;98177.03;2080827;28;20226;-80
2021/01/21 00:22:29;;;;;;;106.57;54.80;;;;;;;-2.12;100.00;98163.25;2081226;28;20230;-78
2021/01/21 00:23:30;;;;;;;104.97;51.38;;;;;;;-2.10;100.00;98163.81;2081474;28;20361;-80
2021/01/21 00:24:33;;;;;;;102.68;50.85;;;;;;;-2.15;100.00;98168.97;2081873;28;20222;-79
2021/01/21 00:25:34;;;;;;;100.03;52.38;;;;;;;-2.16;100.00;98170.00;2082003;28;20279;-80
2021/01/21 00:26:36;;;;;;;81.43;44.83;;;;;;;-2.34;100.00;98153.50;2081742;28;20228;-80
2021/01/21 00:27:37;;;;;;;102.05;50.42;;;;;;;-2.24;100.00;98168.53;2080626;28;20247;-80
2021/01/21 00:28:38;;;;;;;100.70;54.13;;;;;;;-2.25;100.00;98146.06;2080890;28;20238;-81
2021/01/21 00:29:39;;;;;;;115.38;53.00;;;;;;;-2.15;100.00;98171.56;2080818;28;20235;-80
2021/01/21 00:30:40;;;;;;;114.67;55.83;;;;;;;-2.18;100.00;98169.41;2081168;28;20283;-80
2021/01/21 00:31:41;;;;;;;99.53;50.67;;;;;;;-2.19;100.00;98168.63;2080896;28;20227;-80
2021/01/21 00:32:43;;;;;;;110.07;53.43;;;;;;;-2.16;100.00;98168.16;2081162;28;20271;-81
2021/01/21 00:33:44;;;;;;;103.30;52.08;;;;;;;-2.23;100.00;98164.91;2081912;28;20223;-80
2021/01/21 00:34:46;;;;;;;107.45;53.78;;;;;;;-2.14;100.00;98175.75;2080942;28;20227;-81
2021/01/21 00:35:46;;;;;;;103.20;53.20;;;;;;;-2.15;100.00;98179.41;2072989;28;20227;-80
2021/01/21 00:36:48;;;;;;;116.83;55.50;;;;;;;-2.16;100.00;98176.00;2080821;28;20238;-80
2021/01/21 00:37:49;;;;;;;110.07;54.92;;;;;;;-2.23;100.00;98161.50;2089285;28;20658;-80
2021/01/21 00:38:50;;;;;;;118.82;57.78;;;;;;;-2.14;100.00;98170.53;2080836;28;20752;-80
2021/01/21 00:39:52;;;;;;;126.37;58.17;;;;;;;-2.12;100.00;98165.88;2080893;28;20586;-80
2021/01/21 00:40:53;;;;;;;133.27;60.80;;;;;;;-2.02;100.00;98173.88;2080617;28;20231;-80
2021/01/21 00:41:54;;;;;;;139.20;66.43;;;;;;;-2.00;100.00;98179.66;2080774;28;20227;-80
2021/01/21 00:42:55;;;;;;;147.15;68.82;;;;;;;-1.90;100.00;98176.44;2081634;28;20265;-80
2021/01/21 00:43:56;;;;;;;131.87;64.87;;;;;;;-1.86;100.00;98175.69;2081373;28;20262;-80
2021/01/21 00:44:57;;;;;;;140.20;67.20;;;;;;;-1.90;100.00;98165.97;2080912;28;20795;-80
2021/01/21 00:45:58;;;;;;;141.90;67.40;;;;;;;-1.93;100.00;98151.53;2081035;28;20596;-81
2021/01/21 00:46:59;;;;;;;142.30;66.47;;;;;;;-1.84;100.00;98173.63;2072636;28;20603;-79
2021/01/21 00:48:00;;;;;;;140.50;66.33;;;;;;;-1.84;100.00;98167.63;2072513;28;20223;-80
2021/01/21 00:49:02;;;;;;;151.48;65.85;;;;;;;-1.95;100.00;98143.16;2089285;28;20247;-79
2021/01/21 00:50:05;;;;;;;141.65;66.60;;;;;;;-1.79;100.00;98173.72;2088845;28;20222;-80
2021/01/21 00:51:06;;;;;;;145.38;68.10;;;;;;;-1.86;100.00;98148.78;2080917;28;20240;-80
2021/01/21 00:52:08;;;;;;;147.37;69.10;;;;;;;-1.78;100.00;98159.63;2072107;28;20228;-79
2021/01/21 00:53:08;;;;;;;153.07;67.20;;;;;;;-1.87;100.00;98149.81;2072540;28;20231;-80
2021/01/21 00:54:10;;;;;;;136.45;65.00;;;;;;;-1.83;100.00;98163.97;2081099;28;20226;-80
2021/01/21 00:55:12;;;;;;;130.25;64.22;;;;;;;-1.90;100.00;98151.09;2072616;28;20238;-79
2021/01/21 00:56:14;;;;;;;136.30;66.50;;;;;;;-1.88;100.00;98169.94;2072709;28;20634;-80
2021/01/21 00:57:15;;;;;;;128.50;59.90;;;;;;;-1.96;100.00;98165.09;2080650;28;20234;-80
2021/01/21 00:58:16;;;;;;;109.90;55.77;;;;;;;-2.01;100.00;98159.78;2080710;28;20227;-80
2021/01/21 00:59:17;;;;;;;115.78;58.42;;;;;;;-2.06;100.00;98160.50;2072686;28;20224;-80
2021/01/21 01:00:20;;;;;;;123.80;58.60;;;;;;;-2.12;100.00;98152.78;2080504;28;20277;-80
2021/01/21 01:01:23;;;;;;;133.70;60.90;;;;;;;-2.16;100.00;98149.09;2072580;28;20600;-80
2021/01/21 01:02:25;;;;;;;130.27;59.10;;;;;;;-2.16;100.00;98155.09;2080401;28;20227;-80
2021/01/21 01:03:26;;;;;;;129.20;59.72;;;;;;;-2.14;100.00;98160.09;2080761;28;20233;-80
2021/01/21 01:04:28;;;;;;;119.47;56.13;;;;;;;-2.22;100.00;98145.59;2080754;28;20238;-80
2021/01/21 01:05:30;;;;;;;115.72;56.45;;;;;;;-2.19;100.00;98162.59;2080699;28;20219;-80
2021/01/21 01:06:31;;;;;;;119.13;56.43;;;;;;;-2.34;100.00;98145.66;2072424;28;20267;-80
2021/01/21 01:07:33;;;;;;;117.22;56.22;;;;;;;-2.30;100.00;98165.03;2080541;28;20626;-80
2021/01/21 01:08:35;;;;;;;118.45;55.92;;;;;;;-2.33;100.00;98160.31;2072646;28;20234;-81
2021/01/21 01:09:36;;;;;;;102.28;50.15;;;;;;;-2.43;100.00;98146.25;2072579;28;20279;-80
2021/01/21 01:10:38;;;;;;;108.95;54.28;;;;;;;-2.44;100.00;98161.13;2072023;28;20279;-79
2021/01/21 01:11:50;;;;;;;131.25;57.50;;;;;;;-2.49;100.00;98142.78;2073905;28;20753;-80
2021/01/21 01:12:51;;;;;;;115.75;55.70;;;;;;;-2.49;100.00;98148.00;2080641;28;20646;-80
2021/01/21 01:13:53;;;;;;;111.05;53.85;;;;;;;-2.53;100.00;98140.84;2080198;28;20227;-79
2021/01/21 01:14:54;;;;;;;113.18;54.50;;;;;;;-2.57;100.00;98145.75;2080447;28;20219;-80
2021/01/21 01:15:55;;;;;;;115.82;56.17;;;;;;;-2.61;100.00;98139.41;2080611;28;20223;-80
2021/01/21 01:17:01;;;;;;;118.70;56.88;;;;;;;-2.62;100.00;98140.44;2080616;28;20239;-80
2021/01/21 01:18:06;;;;;;;129.77;59.58;;;;;;;-2.63;100.00;98138.84;2072837;28;20235;-80
2021/01/21 01:19:07;;;;;;;125.40;58.58;;;;;;;-2.65;100.00;98143.50;2080278;28;20261;-78
2021/01/21 01:20:10;;;;;;;126.22;58.90;;;;;;;-2.74;100.00;98134.47;2072629;28;20362;-80
2021/01/21 01:21:12;;;;;;;146.25;65.30;;;;;;;-2.65;100.00;98133.06;2080378;28;20240;-80
2021/01/21 01:22:15;;;;;;;147.50;65.87;;;;;;;-2.68;100.00;98136.94;2080456;28;20238;-79
2021/01/21 01:23:16;;;;;;;128.00;61.35;;;;;;;-2.66;100.00;98141.94;2080274;28;20439;-80
2021/01/21 01:24:20;;;;;;;134.90;63.10;;;;;;;-2.75;100.00;98122.44;2080383;28;20223;-80
2021/01/21 01:25:22;;;;;;;158.30;73.47;;;;;;;-2.61;100.00;98134.19;2080602;28;20219;-80
2021/01/21 01:26:23;;;;;;;164.73;74.60;;;;;;;-2.41;100.00;98142.38;2080173;28;20231;-80
2021/01/21 01:27:29;;;;;;;164.13;75.57;;;;;;;-2.28;100.00;98130.84;2073077;28;20227;-79
2021/01/21 01:28:34;;;;;;;166.63;76.53;;;;;;;-2.26;100.00;98136.63;2072720;28;20715;-80
2021/01/21 01:29:35;;;;;;;162.02;72.35;;;;;;;-2.35;100.00;98110.09;2072306;28;20240;-80
2021/01/21 01:30:38;;;;;;;147.52;70.53;;;;;;;-2.20;100.00;98125.22;2072155;28;20228;-80
2021/01/21 01:31:38;;;;;;;149.43;69.55;;;;;;;-2.17;100.00;98126.56;2080393;28;20231;-79
2021/01/21 01:32:41;;;;;;;148.75;67.13;;;;;;;-2.40;100.00;98099.56;2072060;28;20714;-80
2021/01/21 01:33:43;;;;;;;154.45;71.95;;;;;;;-2.28;100.00;98126.41;2072262;28;20604;-80
2021/01/21 01:34:45;;;;;;;148.05;69.38;;;;;;;-2.28;100.00;98129.03;2072422;28;20267;-80
2021/01/21 01:35:51;;;;;;;160.57;73.25;;;;;;;-2.38;100.00;98118.41;2080106;28;20219;-80
2021/01/21 01:36:53;;;;;;;166.82;77.50;;;;;;;-2.40;100.00;98120.47;2072398;28;20228;-80
2021/01/21 01:37:54;;;;;;;174.88;79.75;;;;;;;-2.41;100.00;98121.50;2072971;28;20227;-79
2021/01/21 01:38:56;;;;;;;181.35;81.80;;;;;;;-2.28;100.00;98130.84;2072945;28;20366;-82
2021/01/21 01:40:17;;;;;;;187.45;83.38;;;;;;;-2.22;100.00;98131.72;2071877;28;20704;-79
2021/01/21 01:41:27;;;;;;;183.52;83.88;;;;;;;-2.31;100.00;98107.81;2071496;28;20518;-79
2021/01/21 01:42:29;;;;;;;187.50;83.88;;;;;;;-2.15;100.00;98127.16;2072192;28;20299;-79
2021/01/21 01:43:31;;;;;;;186.25;85.55;;;;;;;-2.14;100.00;98131.34;2064357;28;20243;-79
2021/01/21 01:44:32;;;;;;;181.75;86.28;;;;;;;-2.20;100.00;98119.22;2064068;28;20584;-81
2021/01/21 01:45:33;;;;;;;183.17;85.47;;;;;;;-2.16;100.00;98128.19;2072181;28;20270;-81
2021/01/21 01:46:37;;;;;;;185.77;87.32;;;;;;;-2.30;100.00;98101.56;2071746;28;20666;-80
2021/01/21 01:47:43;;;;;;;183.80;83.97;;;;;;;-2.20;100.00;98124.44;2071948;28;20228;-81
2021/01/21 01:48:47;;;;;;;180.30;85.25;;;;;;;-2.20;100.00;98121.84;2073027;28;20224;-79
2021/01/21 01:49:49;;;;;;;192.57;86.65;;;;;;;-2.23;100.00;98114.47;2072001;28;20228;-79
2021/01/21 01:50:52;;;;;;;185.88;83.07;;;;;;;-2.23;100.00;98119.69;2072104;28;20224;-79
2021/01/21 01:51:58;;;;;;;175.80;81.60;;;;;;;-2.30;100.00;98099.75;2079340;28;20223;-79
2021/01/21 01:52:59;;;;;;;187.60;85.18;;;;;;;-2.24;100.00;98112.91;2071951;28;20239;-79
2021/01/21 01:54:00;;;;;;;184.27;83.90;;;;;;;-2.21;100.00;98113.19;2071908;28;20711;-79
2021/01/21 01:55:06;;;;;;;191.02;84.32;;;;;;;-2.19;100.00;98120.78;2072089;28;20647;-79
2021/01/21 01:56:15;;;;;;;176.43;81.70;;;;;;;-2.23;100.00;98110.03;2055394;28;20711;-79
2021/01/21 01:57:26;;;;;;;188.57;82.20;;;;;;;-2.17;100.00;98118.72;2064928;28;20251;-79
2021/01/21 01:58:30;;;;;;;182.23;80.82;;;;;;;-2.16;100.00;98120.34;2066197;28;20312;-79
2021/01/21 01:59:38;;;;;;;164.02;78.07;;;;;;;-2.32;100.00;98095.78;2066351;28;20742;-80
2021/01/21 02:00:41;;;;;;;159.90;78.70;;;;;;;-2.20;100.00;98124.44;2063940;28;20225;-79
2021/01/21 02:01:42;;;;;;;182.35;80.40;;;;;;;-2.35;100.00;98102.25;2068925;28;20267;-79
2021/01/21 02:02:51;;;;;;;159.32;74.85;;;;;;;-2.34;100.00;98119.53;2080276;28;20232;-79
2021/01/21 02:03:52;;;;;;;152.18;67.00;;;;;;;-2.44;100.00;98108.88;2079918;28;20222;-79
2021/01/21 02:05:16;;;;;;;148.05;64.43;;;;;;;-2.39;100.00;98116.03;2079592;28;20579;-80
2021/01/21 02:06:21;;;;;;;151.82;68.15;;;;;;;-2.34;100.00;98122.16;2072601;28;20223;-79
2021/01/21 02:07:23;;;;;;;145.80;66.80;;;;;;;-2.34;100.00;98114.31;2071581;28;20224;-79
2021/01/21 02:08:32;;;;;;;149.43;68.43;;;;;;;-2.41;100.00;98121.50;2073214;28;20243;-80
2021/01/21 02:09:34;;;;;;;142.35;68.68;;;;;;;-2.56;100.00;98108.16;2071959;28;20239;-79
2021/01/21 02:10:35;;;;;;;139.85;66.10;;;;;;;-2.61;100.00;98105.44;2072211;28;20228;-80
2021/01/21 02:11:55;;;;;;;151.57;67.32;;;;;;;-2.59;100.00;98117.28;2087228;28;20226;-79
2021/01/21 02:13:17;;;;;;;142.82;65.90;;;;;;;-2.57;100.00;98114.41;2084371;28;20253;-79
2021/01/21 02:14:23;;;;;;;135.73;63.58;;;;;;;-2.51;100.00;98118.72;2073731;28;20220;-79
2021/01/21 02:15:35;;;;;;;141.65;66.18;;;;;;;-2.51;100.00;98112.69;2072372;28;20232;-79
2021/01/21 02:16:58;;;;;;;152.20;70.25;;;;;;;-2.53;100.00;98101.69;2073415;28;20553;-79
2021/01/21 02:18:11;;;;;;;154.80;67.95;;;;;;;-2.44;100.00;98119.34;2075501;28;20218;-79
2021/01/21 02:19:50;;;;;;;154.82;70.45;;;;;;;-2.43;100.00;98120.13;2072265;28;20330;-79
2021/01/21 02:21:19;;;;;;;165.90;67.63;;;;;;;-2.35;100.00;98124.97;2080100;28;20235;-80
2021/01/21 02:23:12;;;;;;;155.75;71.72;;;;;;;-2.40;100.00;98119.69;2079599;28;20227;-80
2021/01/21 02:25:03;;;;;;;157.48;68.55;;;;;;;-2.43;100.00;98107.06;2091860;28;20308;-80
2021/01/21 02:26:08;;;;;;;147.10;67.55;;;;;;;-2.38;100.00;98117.63;2081020;28;20223;-80
2021/01/21 02:27:12;;;;;;;147.00;67.97;;;;;;;-2.31;100.00;98119.06;2071984;28;20312;-79
2021/01/21 02:28:55;;;;;;;155.48;68.03;;;;;;;-2.31;100.00;98116.44;2079930;28;20229;-80
2021/01/21 02:29:59;;;;;;;149.68;67.80;;;;;;;-2.36;100.00;98121.56;2075539;28;20234;-80
2021/01/21 02:31:03;;;;;;;147.30;67.43;;;;;;;-2.40;100.00;98114.44;2072821;28;20227;-80
2021/01/21 02:32:40;;;;;;;155.30;68.75;;;;;;;-2.41;100.00;98131.16;2066571;28;20307;-80
2021/01/21 02:33:55;;;;;;;156.45;67.65;;;;;;;-2.38;100.00;98123.63;2074540;28;20219;-80
2021/01/21 02:35:02;;;;;;;153.00;68.45;;;;;;;-2.33;100.00;98128.94;2079488;28;20231;-80
2021/01/21 02:36:07;;;;;;;154.55;69.25;;;;;;;-2.30;100.00;98122.47;2079937;28;20230;-80
2021/01/21 02:37:11;;;;;;;146.68;70.43;;;;;;;-2.41;100.00;98107.66;2063609;28;20235;-80
2021/01/21 02:38:46;;;;;;;148.43;66.32;;;;;;;-2.43;100.00;98118.34;2074620;28;20303;-80
2021/01/21 02:39:49;;;;;;;146.60;68.13;;;;;;;-2.46;100.00;98126.63;2079905;28;20219;-80
2021/01/21 02:40:52;;;;;;;136.45;64.53;;;;;;;-2.46;100.00;98126.63;2071439;28;20583;-79
2021/01/21 02:42:04;;;;;;;146.55;65.65;;;;;;;-2.53;100.00;98104.28;2071586;28;20232;-81
2021/01/21 02:43:09;;;;;;;141.52;64.75;;;;;;;-2.49;100.00;98115.88;2064121;28;20304;-80
2021/01/21 02:44:11;;;;;;;134.95;65.07;;;;;;;-2.52;100.00;98126.75;2063888;28;20233;-80
2021/01/21 02:45:13;;;;;;;134.75;63.55;;;;;;;-2.55;100.00;98117.59;2071631;28;20220;-80
2021/01/21 02:46:20;;;;;;;133.65;62.10;;;;;;;-2.47;100.00;98119.03;2072312;28;20231;-80
2021/01/21 02:47:23;;;;;;;140.98;64.25;;;;;;;-2.48;100.00;98113.00;2071656;28;20270;-80
2021/01/21 02:48:24;;;;;;;125.88;61.00;;;;;;;-2.53;100.00;98104.28;2063376;28;20229;-80
2021/01/21 02:49:32;;;;;;;133.63;60.65;;;;;;;-2.46;100.00;98108.34;2078724;28;20223;-81
2021/01/21 02:50:33;;;;;;;144.95;63.53;;;;;;;-2.45;100.00;98120.38;2079914;28;20705;-80
2021/01/21 02:51:40;;;;;;;129.00;59.17;;;;;;;-2.46;100.00;98112.78;2095755;28;20230;-79
2021/01/21 02:52:48;;;;;;;128.15;59.67;;;;;;;-2.49;100.00;98111.44;2086394;28;20577;-80
2021/01/21 02:54:13;;;;;;;122.25;58.20;;;;;;;-2.52;100.00;98101.44;2072269;28;20220;-80
2021/01/21 02:55:20;;;;;;;123.35;59.30;;;;;;;-2.48;100.00;98110.41;2071357;28;20231;-80
2021/01/21 02:56:28;;;;;;;121.78;59.30;;;;;;;-2.52;100.00;98106.66;2072845;28;20634;-81
2021/01/21 02:57:38;;;;;;;131.60;61.30;;;;;;;-2.57;100.00;98103.97;2072171;28;20235;-81
2021/01/21 02:58:44;;;;;;;129.50;61.08;;;;;;;-2.68;100.00;98102.22;2071847;28;20232;-80
2021/01/21 02:59:48;;;;;;;121.72;59.65;;;;;;;-2.68;100.00;98108.22;2072600;28;20757;-81
2021/01/21 03:00:53;;;;;;;121.45;60.30;;;;;;;-2.82;100.00;98099.09;2072000;28;20709;-79
2021/01/21 03:01:56;;;;;;;118.82;58.72;;;;;;;-2.87;100.00;98097.19;2079319;28;20226;-79
2021/01/21 03:02:59;;;;;;;128.00;59.42;;;;;;;-2.88;100.00;98113.84;2079884;28;20314;-80
2021/01/21 03:04:04;;;;;;;129.55;59.15;;;;;;;-2.95;100.00;98113.22;2079851;28;20250;-78
2021/01/21 03:05:09;;;;;;;115.55;58.30;;;;;;;-2.97;100.00;98115.25;2071885;28;20223;-78
2021/01/21 03:06:11;;;;;;;127.72;59.50;;;;;;;-3.05;100.00;98113.00;2071450;28;20224;-79
2021/01/21 03:07:16;;;;;;;126.85;60.55;;;;;;;-3.10;100.00;98115.53;2079702;28;20223;-78
2021/01/21 03:08:19;;;;;;;126.15;59.60;;;;;;;-3.10;100.00;98112.91;2079769;28;20219;-79
2021/01/21 03:09:21;;;;;;;124.32;60.53;;;;;;;-3.17;100.00;98107.03;2071651;28;20558;-78
2021/01/21 03:10:24;;;;;;;119.18;59.13;;;;;;;-3.19;100.00;98115.09;2071227;28;20224;-80
2021/01/21 03:11:26;;;;;;;117.38;58.40;;;;;;;-3.19;100.00;98122.13;2079823;28;20277;-81
2021/01/21 03:12:32;;;;;;;124.25;61.00;;;;;;;-3.19;100.00;98116.91;2079566;28;20607;-81
2021/01/21 03:13:42;;;;;;;132.85;62.35;;;;;;;-3.21;100.00;98118.97;2079142;28;20235;-80
2021/01/21 03:14:45;;;;;;;129.13;59.40;;;;;;;-3.33;100.00;98115.56;2079831;28;20224;-79
2021/01/21 03:15:46;;;;;;;129.02;61.50;;;;;;;-3.43;100.00;98105.72;2079619;28;20216;-78
2021/01/21 03:16:55;;;;;;;139.30;63.80;;;;;;;-3.36;100.00;98118.63;2079768;28;20215;-80
2021/01/21 03:17:57;;;;;;;144.93;64.63;;;;;;;-3.36;100.00;98121.25;2079165;28;20733;-80
2021/01/21 03:19:03;;;;;;;131.00;61.55;;;;;;;-3.39;100.00;98116.47;2072059;28;20710;-81
2021/01/21 03:20:05;;;;;;;136.70;61.00;;;;;;;-3.44;100.00;98117.97;2079542;28;20224;-80
2021/01/21 03:21:08;;;;;;;142.80;63.00;;;;;;;-3.42;100.00;98121.13;2079420;28;20238;-79
2021/01/21 03:22:15;;;;;;;143.48;65.35;;;;;;;-3.45;100.00;98124.19;2096079;28;20221;-80
2021/01/21 03:23:16;;;;;;;134.55;62.22;;;;;;;-3.46;100.00;98124.44;2087747;28;20242;-79
2021/01/21 03:24:29;;;;;;;136.55;63.30;;;;;;;-3.57;100.00;98105.16;2071117;28;20227;-80
2021/01/21 03:25:38;;;;;;;143.82;61.70;;;;;;;-3.48;100.00;98129.06;2071033;28;20232;-78
2021/01/21 03:26:43;;;;;;;126.68;60.88;;;;;;;-3.58;100.00;98118.41;2071398;28;20227;-80
2021/01/21 03:27:51;;;;;;;129.38;59.70;;;;;;;-3.51;100.00;98130.31;2063927;28;20738;-81
2021/01/21 03:29:00;;;;;;;136.05;64.95;;;;;;;-3.52;100.00;98123.50;2064781;28;20253;-80
2021/01/21 03:30:01;;;;;;;133.60;63.83;;;;;;;-3.62;100.00;98115.47;2084925;28;20313;-81
2021/01/21 03:31:05;;;;;;;139.82;63.45;;;;;;;-3.54;100.00;98128.16;2087335;28;20815;-79
2021/01/21 03:32:06;;;;;;;129.50;61.75;;;;;;;-3.55;100.00;98126.59;2079505;28;20285;-80
2021/01/21 03:33:21;;;;;;;136.23;63.20;;;;;;;-3.63;100.00;98118.31;2079611;28;20305;-80
2021/01/21 03:34:26;;;;;;;148.32;66.13;;;;;;;-3.58;100.00;98123.63;2071564;28;20224;-79
2021/01/21 03:35:36;;;;;;;147.75;67.55;;;;;;;-3.68;100.00;98110.38;2072734;28;20224;-80
2021/01/21 03:36:39;;;;;;;153.13;68.23;;;;;;;-3.54;100.00;98133.38;2066897;28;20311;-80
2021/01/21 03:37:40;;;;;;;152.85;71.50;;;;;;;-3.60;100.00;98116.03;2067489;28;20506;-81
2021/01/21 03:38:41;;;;;;;154.70;69.88;;;;;;;-3.42;100.00;98126.34;2077463;28;20315;-80
2021/01/21 03:40:16;;;;;;;160.07;72.45;;;;;;;-3.36;100.00;98126.47;2070861;28;20235;-79
2021/01/21 03:41:23;;;;;;;159.35;70.82;;;;;;;-3.31;100.00;98129.94;2090028;28;20616;-80
2021/01/21 03:42:39;;;;;;;153.73;68.65;;;;;;;-3.22;100.00;98125.16;2085457;28;20234;-80
2021/01/21 03:43:51;;;;;;;141.18;65.57;;;;;;;-3.36;100.00;98110.81;2079688;28;20254;-80
2021/01/21 03:44:57;;;;;;;142.60;66.35;;;;;;;-3.24;100.00;98130.63;2079693;28;20219;-80
2021/01/21 03:45:58;;;;;;;135.52;62.63;;;;;;;-3.33;100.00;98118.97;2079426;28;20219;-79
2021/01/21 03:46:59;;;;;;;129.90;64.17;;;;;;;-3.26;100.00;98132.66;2079418;28;20249;-79
2021/01/21 03:48:16;;;;;;;136.35;60.35;;;;;;;-3.35;100.00;98115.00;2079091;28;20223;-80
2021/01/21 03:49:37;;;;;;;137.38;62.50;;;;;;;-3.38;100.00;98123.28;2070645;28;20686;-79
2021/01/21 03:50:51;;;;;;;134.82;62.42;;;;;;;-3.38;100.00;98123.28;2071370;28;20219;-79
2021/01/21 03:51:53;;;;;;;135.75;62.22;;;;;;;-3.41;100.00;98124.53;2071050;28;20243;-79
2021/01/21 03:53:08;;;;;;;137.35;61.42;;;;;;;-3.50;100.00;98110.25;2077011;28;20591;-80
2021/01/21 03:54:23;;;;;;;143.95;63.85;;;;;;;-3.49;100.00;98119.66;2078858;28;20280;-80
2021/01/21 03:55:25;;;;;;;135.95;64.95;;;;;;;-3.54;100.00;98125.56;2079300;28;20254;-80
2021/01/21 03:56:38;;;;;;;138.57;65.65;;;;;;;-3.55;100.00;98123.97;2083594;28;20231;-79
2021/01/21 03:57:39;;;;;;;145.65;66.93;;;;;;;-3.62;100.00;98120.69;2079496;28;20251;-80
2021/01/21 03:58:55;;;;;;;136.20;62.58;;;;;;;-3.61;100.00;98127.50;2077045;28;20678;-79
2021/01/21 03:59:57;;;;;;;127.72;60.95;;;;;;;-3.62;100.00;98099.84;2079308;28;20286;-79
2021/01/21 04:00:58;;;;;;;125.30;60.60;;;;;;;-3.44;100.00;98120.56;2071388;28;20258;-79
2021/01/21 04:01:59;;;;;;;129.93;61.22;;;;;;;-3.45;100.00;98111.16;2079318;28;20446;-79
2021/01/21 04:03:02;;;;;;;131.82;59.50;;;;;;;-3.48;100.00;98111.59;2079523;28;20303;-79
2021/01/21 04:04:12;;;;;;;131.57;60.20;;;;;;;-3.52;100.00;98105.28;2075793;28;20235;-80
2021/01/21 04:05:14;;;;;;;133.90;61.97;;;;;;;-3.39;100.00;98121.69;2079390;28;20302;-80
2021/01/21 04:06:15;;;;;;;135.20;61.25;;;;;;;-3.35;100.00;98110.56;2079422;28;20303;-79
2021/01/21 04:07:17;;;;;;;132.70;60.90;;;;;;;-3.33;100.00;98107.72;2079450;28;20281;-79
2021/01/21 04:08:18;;;;;;;132.02;63.30;;;;;;;-3.36;100.00;98108.19;2079373;28;20446;-80
2021/01/21 04:09:25;;;;;;;123.47;62.78;;;;;;;-3.54;100.00;98093.50;2071573;28;20306;-79
2021/01/21 04:10:44;;;;;;;132.60;61.13;;;;;;;-3.43;100.00;98110.94;2073187;28;20223;-79
2021/01/21 04:11:52;;;;;;;127.88;59.58;;;;;;;-3.47;100.00;98115.03;2071908;28;20690;-80
2021/01/21 04:12:54;;;;;;;136.60;60.08;;;;;;;-3.47;100.00;98109.81;2071116;28;20227;-79
2021/01/21 04:13:56;;;;;;;139.93;63.42;;;;;;;-3.49;100.00;98111.84;2071411;28;20278;-80
2021/01/21 04:14:58;;;;;;;135.10;61.65;;;;;;;-3.49;100.00;98117.84;2071496;28;20235;-79
2021/01/21 04:15:59;;;;;;;133.98;61.58;;;;;;;-3.48;100.00;98109.00;2071174;28;20220;-80
2021/01/21 04:17:00;;;;;;;139.55;63.08;;;;;;;-3.59;100.00;98094.16;2079360;28;20302;-79
2021/01/21 04:18:06;;;;;;;148.07;62.42;;;;;;;-3.46;100.00;98104.38;2079978;28;20247;-79
2021/01/21 04:19:27;;;;;;;127.45;58.97;;;;;;;-3.49;100.00;98109.22;2078913;28;22650;-80
2021/01/21 04:20:28;;;;;;;142.10;61.97;;;;;;;-3.45;100.00;98115.59;2079574;28;20215;-80
2021/01/21 04:21:32;;;;;;;131.98;60.47;;;;;;;-3.47;100.00;98105.38;2079450;28;20219;-81
2021/01/21 04:22:54;;;;;;;130.65;59.05;;;;;;;-3.47;100.00;98110.59;2078431;28;20739;-79
2021/01/21 04:23:59;;;;;;;131.23;58.72;;;;;;;-3.45;100.00;98102.53;2079228;28;20697;-80
2021/01/21 04:25:11;;;;;;;136.23;60.53;;;;;;;-3.46;100.00;98100.97;2078786;28;20227;-79
2021/01/21 04:26:20;;;;;;;132.27;60.17;;;;;;;-3.57;100.00;98097.31;2079400;28;20320;-79
2021/01/21 04:27:27;;;;;;;130.98;61.38;;;;;;;-3.59;100.00;98099.38;2071631;28;20315;-80
2021/01/21 04:28:28;;;;;;;127.93;63.30;;;;;;;-3.63;100.00;98105.28;2079467;28;20226;-81
2021/01/21 04:29:30;;;;;;;133.90;60.97;;;;;;;-3.66;100.00;98106.50;2079465;28;20228;-79
2021/01/21 04:30:31;;;;;;;129.23;60.10;;;;;;;-3.68;100.00;98108.56;2079554;28;20273;-80
2021/01/21 04:31:32;;;;;;;127.43;60.05;;;;;;;-3.74;100.00;98101.66;2079329;28;20224;-80
2021/01/21 04:32:44;;;;;;;126.93;59.35;;;;;;;-3.90;100.00;98084.09;2072403;28;20637;-79
2021/01/21 04:33:47;;;;;;;130.10;59.33;;;;;;;-3.85;100.00;98098.03;2079220;28;20630;-80
2021/01/21 04:34:54;;;;;;;128.93;58.88;;;;;;;-3.89;100.00;98094.31;2077846;28;20230;-80
2021/01/21 04:35:55;;;;;;;131.23;60.63;;;;;;;-3.94;100.00;98099.38;2079341;28;20709;-79
2021/01/21 04:36:56;;;;;;;129.50;61.20;;;;;;;-4.00;100.00;98095.88;2079532;28;20586;-80
2021/01/21 04:38:33;;;;;;;129.50;59.58;;;;;;;-4.04;100.00;98104.38;2074569;28;20247;-80
2021/01/21 04:39:40;;;;;;;124.47;58.33;;;;;;;-4.07;100.00;98105.63;2080492;28;20576;-80
2021/01/21 04:40:43;;;;;;;130.90;59.65;;;;;;;-4.09;100.00;98105.03;2072612;28;20664;-80
2021/01/21 04:42:05;;;;;;;133.02;60.45;;;;;;;-4.11;100.00;98104.47;2073354;28;20302;-79
2021/01/21 04:43:12;;;;;;;133.65;59.78;;;;;;;-4.21;100.00;98088.59;2080275;28;20227;-79
2021/01/21 04:44:14;;;;;;;132.23;62.13;;;;;;;-4.15;100.00;98111.16;2080827;28;20231;-79
2021/01/21 04:45:38;;;;;;;127.30;59.30;;;;;;;-4.18;100.00;98102.97;2080440;28;20469;-80
2021/01/21 04:46:40;;;;;;;127.20;60.17;;;;;;;-4.21;100.00;98099.03;2080731;28;20250;-79
2021/01/21 04:47:42;;;;;;;139.10;60.30;;;;;;;-4.24;100.00;98104.69;2072874;28;20228;-80
2021/01/21 04:48:55;;;;;;;127.40;59.60;;;;;;;-4.37;100.00;98084.03;2082078;28;20698;-79
2021/01/21 04:49:57;;;;;;;133.25;61.67;;;;;;;-4.33;100.00;98090.41;2080570;28;20235;-79
2021/01/21 04:50:59;;;;;;;132.73;60.85;;;;;;;-4.29;100.00;98096.75;2072774;28;20224;-80
2021/01/21 04:52:11;;;;;;;121.28;58.17;;;;;;;-4.27;100.00;98102.50;2080444;28;20223;-79
2021/01/21 04:53:16;;;;;;;125.88;57.80;;;;;;;-4.28;100.00;98103.53;2081274;28;20224;-79
2021/01/21 04:54:39;;;;;;;131.95;59.67;;;;;;;-4.30;100.00;98102.97;2080404;28;20220;-79
2021/01/21 04:55:56;;;;;;;126.90;57.58;;;;;;;-4.42;100.00;98086.53;2080669;28;20270;-79